createdAt,value
2022-08-22T00:01:56.392Z,15.88
2022-08-22T00:02:49.119Z,13.63
2022-08-22T00:02:53.143Z,17.10
2022-08-22T00:03:03.566Z,16.35
2022-08-22T00:04:39.055Z,19.30
2022-08-22T00:07:25.717Z,21.38
2022-08-22T00:12:52.422Z,19.40
2022-08-22T00:15:43.159Z,22.08
2022-08-22T00:18:20.398Z,15.00
2022-08-22T00:21:03.455Z,19.35
2022-08-22T00:23:40.415Z,22.42
2022-08-22T00:26:15.466Z,17.98
2022-08-22T00:29:00.201Z,27.60
2022-08-22T00:31:35.953Z,22.52
2022-08-22T00:34:02.546Z,17.90
2022-08-22T00:36:40.260Z,25.92
2022-08-22T00:39:18.997Z,22.67
2022-08-22T00:41:46.535Z,21.58
2022-08-22T00:44:23.669Z,22.70
2022-08-22T00:47:06.618Z,23.50
2022-08-22T00:49:55.997Z,18.73
2022-08-22T00:52:52.841Z,24.17
2022-08-22T00:55:37.233Z,28.05
2022-08-22T00:58:34.376Z,21.63
2022-08-22T01:03:47.457Z,18.35
2022-08-22T01:06:28.718Z,19.83
2022-08-22T01:09:11.656Z,25.17
2022-08-22T01:12:00.321Z,26.40
2022-08-22T01:14:49.212Z,23.05
2022-08-22T01:17:48.702Z,19.63
2022-08-22T01:20:50.477Z,19.17
2022-08-22T01:23:52.290Z,32.10
2022-08-22T01:26:19.831Z,20.35
2022-08-22T01:29:04.367Z,21.63
2022-08-22T01:32:16.769Z,20.42
2022-08-22T01:35:08.622Z,23.70
2022-08-22T01:38:03.867Z,20.48
2022-08-22T01:40:53.500Z,19.70
2022-08-22T01:43:51.339Z,22.35
2022-08-22T01:46:42.835Z,25.55
2022-08-22T01:49:20.359Z,28.30
2022-08-22T01:51:53.790Z,18.58
2022-08-22T01:54:50.759Z,28.13
2022-08-22T01:57:19.235Z,19.42
2022-08-22T01:59:49.921Z,20.55
2022-08-22T02:02:46.928Z,26.88
2022-08-22T02:05:37.168Z,25.60
2022-08-22T02:08:13.608Z,18.67
2022-08-22T02:11:04.896Z,22.20
2022-08-22T02:14:02.037Z,19.23
2022-08-22T02:19:03.659Z,18.02
2022-08-22T02:21:56.490Z,20.08
2022-08-22T02:24:40.743Z,19.85
2022-08-22T02:27:23.695Z,18.35
2022-08-22T02:30:11.516Z,25.67
2022-08-22T02:32:58.299Z,25.35
2022-08-22T02:35:34.628Z,20.75
2022-08-22T02:38:35.328Z,19.73
2022-08-22T02:41:26.464Z,20.02
2022-08-22T02:44:01.641Z,19.98
2022-08-22T02:46:43.637Z,21.13
2022-08-22T02:49:27.422Z,18.95
2022-08-22T02:52:14.800Z,24.55
2022-08-22T02:55:06.651Z,18.30
2022-08-22T02:57:43.781Z,19.90
2022-08-22T03:00:32.298Z,20.45
2022-08-22T03:02:59.514Z,22.45
2022-08-22T03:05:40.154Z,23.20
2022-08-22T03:08:26.866Z,19.08
2022-08-22T03:11:19.321Z,15.07
2022-08-22T03:13:49.432Z,11.50
2022-08-22T03:16:26.512Z,14.23
2022-08-22T03:19:08.518Z,19.35
2022-08-22T03:22:05.796Z,20.63
2022-08-22T03:24:48.441Z,14.38
2022-08-22T03:27:33.070Z,12.82
2022-08-22T03:30:05.965Z,18.13
2022-08-22T03:32:51.308Z,16.20
2022-08-22T03:35:39.312Z,20.00
2022-08-22T03:38:21.258Z,19.83
2022-08-22T03:41:03.161Z,12.80
2022-08-22T03:43:39.217Z,15.50
2022-08-22T03:46:41.055Z,13.65
2022-08-22T03:49:40.066Z,20.77
2022-08-22T03:53:01.764Z,13.68
2022-08-22T03:56:03.563Z,16.23
2022-08-22T03:58:39.162Z,18.30
2022-08-22T04:01:14.432Z,17.25
2022-08-22T04:03:57.381Z,13.07
2022-08-22T04:06:53.727Z,20.20
2022-08-22T04:09:53.457Z,17.73
2022-08-22T04:12:43.403Z,10.90
2022-08-22T04:15:20.172Z,13.98
2022-08-22T04:18:12.014Z,14.68
2022-08-22T04:20:56.296Z,12.68
2022-08-22T04:23:22.835Z,12.80
2022-08-22T04:26:12.393Z,14.88
2022-08-22T04:28:45.542Z,10.52
2022-08-22T04:31:17.195Z,14.98
2022-08-22T04:34:00.561Z,10.68
2022-08-22T04:36:39.648Z,12.80
2022-08-22T04:39:08.233Z,13.20
2022-08-22T04:41:53.536Z,14.50
2022-08-22T04:44:35.405Z,12.20
2022-08-22T04:47:09.756Z,16.10
2022-08-22T04:49:43.539Z,26.13
2022-08-22T04:52:30.992Z,12.18
2022-08-22T04:55:28.059Z,17.23
2022-08-22T04:58:06.502Z,15.15
2022-08-22T05:00:40.450Z,12.48
2022-08-22T05:03:13.107Z,15.82
2022-08-22T05:05:41.578Z,9.77
2022-08-22T05:08:13.422Z,15.13
2022-08-22T05:10:44.014Z,14.75
2022-08-22T05:13:18.846Z,16.20
2022-08-22T05:15:52.330Z,17.30
2022-08-22T05:18:29.705Z,14.68
2022-08-22T05:21:00.078Z,21.13
2022-08-22T05:23:36.361Z,17.00
2022-08-22T05:26:06.152Z,16.60
2022-08-22T05:28:36.122Z,18.23
2022-08-22T05:31:08.410Z,18.33
2022-08-22T05:33:43.667Z,20.40
2022-08-22T05:36:15.183Z,21.73
2022-08-22T05:38:50.833Z,16.55
2022-08-22T05:41:23.690Z,14.25
2022-08-22T05:43:52.275Z,16.00
2022-08-22T05:46:26.895Z,18.70
2022-08-22T05:48:59.863Z,16.98
2022-08-22T05:51:40.375Z,20.48
2022-08-22T05:54:16.480Z,16.88
2022-08-22T05:56:50.954Z,20.92
2022-08-22T05:59:29.310Z,17.98
2022-08-22T06:01:56.925Z,17.25
2022-08-22T06:04:42.402Z,17.77
2022-08-22T06:07:23.539Z,12.98
2022-08-22T06:10:05.608Z,17.75
2022-08-22T06:12:35.301Z,12.15
2022-08-22T06:15:12.140Z,18.70
2022-08-22T06:17:47.143Z,14.40
2022-08-22T06:20:20.912Z,18.63
2022-08-22T06:22:53.698Z,22.60
2022-08-22T06:25:26.717Z,16.98
2022-08-22T06:27:55.071Z,18.65
2022-08-22T06:30:26.309Z,15.98
2022-08-22T06:32:58.964Z,14.43
2022-08-22T06:35:53.303Z,13.73
2022-08-22T06:38:24.638Z,10.90
2022-08-22T06:40:54.319Z,13.70
2022-08-22T06:43:25.458Z,12.50
2022-08-22T06:45:53.474Z,16.17
2022-08-22T06:48:23.687Z,14.27
2022-08-22T06:50:58.582Z,15.02
2022-08-22T06:53:34.431Z,11.20
2022-08-22T06:56:03.459Z,16.70
2022-08-22T06:58:34.481Z,13.68
2022-08-22T07:01:12.205Z,10.60
2022-08-22T07:03:52.735Z,8.35
2022-08-22T07:06:39.596Z,10.98
2022-08-22T07:09:07.254Z,12.52
2022-08-22T07:11:39.637Z,13.45
2022-08-22T07:14:11.657Z,10.82
2022-08-22T07:16:45.643Z,12.68
2022-08-22T07:19:25.467Z,17.45
2022-08-22T07:21:52.508Z,11.05
2022-08-22T07:24:24.740Z,9.70
2022-08-22T07:27:02.721Z,11.73
2022-08-22T07:30:03.996Z,12.20
2022-08-22T07:32:42.123Z,13.52
2022-08-22T07:35:13.000Z,8.75
2022-08-22T07:37:47.787Z,15.65
2022-08-22T07:40:31.927Z,10.65
2022-08-22T07:43:03.216Z,10.45
2022-08-22T07:45:54.475Z,9.43
2022-08-22T07:48:33.950Z,24.40
2022-08-22T07:51:04.082Z,15.63
2022-08-22T07:53:39.329Z,13.80
2022-08-22T07:56:09.944Z,17.10
2022-08-22T07:58:39.786Z,9.20
2022-08-22T08:01:15.344Z,10.40
2022-08-22T08:03:44.073Z,12.48
2022-08-22T08:06:10.836Z,7.00
2022-08-22T08:08:44.626Z,12.27
2022-08-22T08:11:14.569Z,14.05
2022-08-22T08:13:45.152Z,12.52
2022-08-22T08:16:18.291Z,12.68
2022-08-22T08:18:48.454Z,11.25
2022-08-22T08:21:32.504Z,11.32
2022-08-22T08:24:01.309Z,8.50
2022-08-22T08:26:35.695Z,10.77
2022-08-22T08:29:04.067Z,11.55
2022-08-22T08:31:35.601Z,10.00
2022-08-22T08:34:23.660Z,8.48
2022-08-22T08:37:05.314Z,12.43
2022-08-22T08:39:48.556Z,11.52
2022-08-22T08:42:15.209Z,14.43
2022-08-22T08:44:41.770Z,11.13
2022-08-22T08:47:10.555Z,10.48
2022-08-22T08:50:12.407Z,8.15
2022-08-22T08:52:54.743Z,12.45
2022-08-22T08:55:45.016Z,12.15
2022-08-22T08:58:26.977Z,9.25
2022-08-22T09:01:27.650Z,9.85
2022-08-22T09:04:30.317Z,14.35
2022-08-22T09:07:18.821Z,11.57
2022-08-22T09:10:00.767Z,9.45
2022-08-22T09:13:12.439Z,13.35
2022-08-22T09:16:09.965Z,8.38
2022-08-22T09:19:01.658Z,10.15
2022-08-22T09:22:14.437Z,14.40
2022-08-22T09:24:48.962Z,11.68
2022-08-22T09:27:29.891Z,7.07
2022-08-22T09:30:11.568Z,7.05
2022-08-22T09:32:40.689Z,7.53
2022-08-22T09:35:18.710Z,8.05
2022-08-22T09:38:15.799Z,6.90
2022-08-22T09:43:26.631Z,6.47
2022-08-22T09:46:10.189Z,7.13
2022-08-22T09:48:38.838Z,7.63
2022-08-22T09:51:28.711Z,7.97
2022-08-22T09:54:14.402Z,8.20
2022-08-22T09:57:08.563Z,7.85
2022-08-22T09:59:36.110Z,8.20
2022-08-22T10:02:15.374Z,4.60
2022-08-22T10:04:58.179Z,5.90
2022-08-22T10:07:55.445Z,9.85
2022-08-22T10:10:42.286Z,9.90
2022-08-22T10:13:38.250Z,7.18
2022-08-22T10:16:26.510Z,3.53
2022-08-22T10:19:18.072Z,4.75
2022-08-22T10:22:05.839Z,6.40
2022-08-22T10:24:59.965Z,6.85
2022-08-22T10:27:52.399Z,4.97
2022-08-22T10:30:25.714Z,5.55
2022-08-22T10:33:13.925Z,7.97
2022-08-22T10:35:57.949Z,6.35
2022-08-22T10:38:43.950Z,7.82
2022-08-22T10:41:28.529Z,8.23
2022-08-22T10:44:04.463Z,4.10
2022-08-22T10:46:51.838Z,4.55
2022-08-22T10:49:33.719Z,3.35
2022-08-22T10:52:15.633Z,5.38
2022-08-22T10:54:56.494Z,5.50
2022-08-22T10:57:32.641Z,5.50
2022-08-22T11:00:06.205Z,6.22
2022-08-22T11:02:47.962Z,7.30
2022-08-22T11:05:27.758Z,7.22
2022-08-22T11:08:15.598Z,3.58
2022-08-22T11:10:58.636Z,9.57
2022-08-22T11:13:42.284Z,6.47
2022-08-22T11:16:21.494Z,6.38
2022-08-22T11:19:15.018Z,3.65
2022-08-22T11:21:45.857Z,7.95
2022-08-22T11:24:35.778Z,6.13
2022-08-22T11:27:21.031Z,4.90
2022-08-22T11:30:18.351Z,3.03
2022-08-22T11:33:10.700Z,7.63
2022-08-22T11:35:49.635Z,6.22
2022-08-22T11:38:33.411Z,3.35
2022-08-22T11:41:09.474Z,5.70
2022-08-22T11:43:45.918Z,4.35
2022-08-22T11:46:19.782Z,3.10
2022-08-22T11:49:19.058Z,3.17
2022-08-22T11:52:01.828Z,4.70
2022-08-22T11:54:43.855Z,3.67
2022-08-22T11:57:17.617Z,3.45
2022-08-22T11:59:45.152Z,3.30
2022-08-22T12:02:19.468Z,3.08
2022-08-22T12:04:55.294Z,2.95
2022-08-22T12:07:33.207Z,4.35
2022-08-22T12:10:16.000Z,4.65
2022-08-22T12:12:42.578Z,4.40
2022-08-22T12:15:28.616Z,5.60
2022-08-22T12:18:08.450Z,5.32
2022-08-22T12:20:52.322Z,3.47
2022-08-22T12:23:38.093Z,3.83
2022-08-22T12:26:28.165Z,5.85
2022-08-22T12:29:19.783Z,3.97
2022-08-22T12:32:35.123Z,4.47
2022-08-22T12:35:32.836Z,2.97
2022-08-22T12:38:29.524Z,3.53
2022-08-22T12:41:28.322Z,4.47
2022-08-22T12:44:32.398Z,5.40
2022-08-22T12:49:52.149Z,3.22
2022-08-22T12:52:41.686Z,3.85
2022-08-22T12:55:21.704Z,2.55
2022-08-22T12:58:16.170Z,6.53
2022-08-22T13:00:47.422Z,5.18
2022-08-22T13:03:32.640Z,4.90
2022-08-22T13:06:04.798Z,3.63
2022-08-22T13:08:41.281Z,4.18
2022-08-22T13:11:22.550Z,4.13
2022-08-22T13:13:57.126Z,2.85
2022-08-22T13:16:26.426Z,4.68
2022-08-22T13:18:54.721Z,5.32
2022-08-22T13:21:31.391Z,6.90
2022-08-22T13:24:06.059Z,7.45
2022-08-22T13:26:46.153Z,3.78
2022-08-22T13:29:26.087Z,3.97
2022-08-22T13:32:00.267Z,5.03
2022-08-22T13:34:40.599Z,6.30
2022-08-22T13:37:16.675Z,4.20
2022-08-22T13:39:49.038Z,4.07
2022-08-22T13:42:30.383Z,7.55
2022-08-22T13:45:02.512Z,6.90
2022-08-22T13:47:32.411Z,6.35
2022-08-22T13:50:19.816Z,5.57
2022-08-22T13:52:55.217Z,3.72
2022-08-22T13:55:49.011Z,5.22
2022-08-22T13:58:35.794Z,4.18
2022-08-22T14:03:55.385Z,4.28
2022-08-22T14:06:38.161Z,3.50
2022-08-22T14:09:24.811Z,4.43
2022-08-22T14:12:06.609Z,7.63
2022-08-22T14:14:42.084Z,3.60
2022-08-22T14:17:17.437Z,4.13
2022-08-22T14:19:52.976Z,3.35
2022-08-22T14:22:31.845Z,7.97
2022-08-22T14:25:07.262Z,7.32
2022-08-22T14:27:43.947Z,4.78
2022-08-22T14:30:18.811Z,4.20
2022-08-22T14:32:55.226Z,4.05
2022-08-22T14:35:35.060Z,4.55
2022-08-22T14:38:20.585Z,4.60
2022-08-22T14:47:48.169Z,4.03
2022-08-22T14:50:02.570Z,3.63
2022-08-22T14:52:37.925Z,3.60
2022-08-22T14:55:40.054Z,8.77
2022-08-22T14:58:21.825Z,3.60
2022-08-22T15:01:19.467Z,2.40
2022-08-22T15:03:56.263Z,3.33
2022-08-22T15:06:47.684Z,6.15
2022-08-22T15:09:31.498Z,3.55
2022-08-22T15:11:58.864Z,3.22
2022-08-22T15:14:52.128Z,3.40
2022-08-22T15:17:38.026Z,3.53
2022-08-22T15:20:13.471Z,6.07
2022-08-22T15:22:46.055Z,3.47
2022-08-22T15:25:21.048Z,3.88
2022-08-22T15:27:53.990Z,5.53
2022-08-22T15:30:44.586Z,3.10
2022-08-22T15:33:21.546Z,3.85
2022-08-22T15:35:49.975Z,4.75
2022-08-22T15:38:27.663Z,3.42
2022-08-22T15:40:55.759Z,6.05
2022-08-22T15:43:26.137Z,4.25
2022-08-22T15:46:28.432Z,4.93
2022-08-22T15:49:02.828Z,4.82
2022-08-22T15:51:32.914Z,3.35
2022-08-22T15:54:24.902Z,5.22
2022-08-22T15:56:52.159Z,3.55
2022-08-22T15:59:54.233Z,4.45
2022-08-22T16:02:35.230Z,4.85
2022-08-22T16:05:20.766Z,5.13
2022-08-22T16:08:12.331Z,3.08
2022-08-22T16:10:45.485Z,4.68
2022-08-22T16:13:27.327Z,5.53
2022-08-22T16:16:11.941Z,3.47
2022-08-22T16:18:39.818Z,4.18
2022-08-22T16:21:09.073Z,4.40
2022-08-22T16:23:51.258Z,2.42
2022-08-22T16:26:23.228Z,4.57
2022-08-22T16:28:58.351Z,4.93
2022-08-22T16:31:29.022Z,4.97
2022-08-22T16:33:59.231Z,5.55
2022-08-22T16:36:43.447Z,2.75
2022-08-22T16:39:32.285Z,2.53
2022-08-22T16:42:15.675Z,3.03
2022-08-22T16:44:42.277Z,3.13
2022-08-22T16:47:14.694Z,6.13
2022-08-22T16:50:00.723Z,8.05
2022-08-22T16:52:27.631Z,4.25
2022-08-22T16:54:57.719Z,3.08
2022-08-22T16:58:04.996Z,5.07
2022-08-22T17:03:32.841Z,4.97
2022-08-22T17:06:15.740Z,8.60
2022-08-22T17:09:14.508Z,4.45
2022-08-22T17:12:12.676Z,7.65
2022-08-22T17:14:40.282Z,3.92
2022-08-22T17:17:46.867Z,3.35
2022-08-22T17:20:29.859Z,4.28
2022-08-22T17:23:22.609Z,3.07
2022-08-22T17:26:07.742Z,6.43
2022-08-22T17:28:51.788Z,7.50
2022-08-22T17:31:45.352Z,5.53
2022-08-22T17:34:32.286Z,5.63
2022-08-22T17:37:22.128Z,5.95
2022-08-22T17:40:13.269Z,5.25
2022-08-22T17:42:40.937Z,7.20
2022-08-22T17:45:07.999Z,5.43
2022-08-22T17:47:47.340Z,7.53
2022-08-22T17:50:21.418Z,7.07
2022-08-22T17:52:55.753Z,7.55
2022-08-22T17:55:26.812Z,4.22
2022-08-22T17:57:57.496Z,4.53
2022-08-22T18:00:28.453Z,6.05
2022-08-22T18:03:10.310Z,5.25
2022-08-22T18:06:02.339Z,4.97
2022-08-22T18:11:46.974Z,7.40
2022-08-22T18:16:59.291Z,5.65
2022-08-22T18:19:55.428Z,5.05
2022-08-22T18:22:34.962Z,5.65
2022-08-22T18:25:06.427Z,8.57
2022-08-22T18:27:49.473Z,6.55
2022-08-22T18:30:36.725Z,6.35
2022-08-22T18:33:12.199Z,6.80
2022-08-22T18:35:53.814Z,7.35
2022-08-22T18:38:29.499Z,11.52
2022-08-22T18:41:06.874Z,10.50
2022-08-22T18:43:36.423Z,7.55
2022-08-22T18:46:39.809Z,9.70
2022-08-22T18:49:33.856Z,8.20
2022-08-22T18:52:17.949Z,8.30
2022-08-22T18:54:50.830Z,9.73
2022-08-22T18:57:42.721Z,5.63
2022-08-22T19:00:25.889Z,9.60
2022-08-22T19:03:07.751Z,7.90
2022-08-22T19:06:05.109Z,9.18
2022-08-22T19:08:50.440Z,10.75
2022-08-22T19:11:36.421Z,10.70
2022-08-22T19:14:19.847Z,10.18
2022-08-22T19:16:59.124Z,7.85
2022-08-22T19:20:09.964Z,10.85
2022-08-22T19:22:37.051Z,12.10
2022-08-22T19:25:27.207Z,11.07
2022-08-22T19:28:13.743Z,9.85
2022-08-22T19:30:47.723Z,12.27
2022-08-22T19:33:34.816Z,9.43
2022-08-22T19:36:05.564Z,8.80
2022-08-22T19:38:57.495Z,10.07
2022-08-22T19:41:56.891Z,10.77
2022-08-22T19:44:23.494Z,11.00
2022-08-22T19:47:26.841Z,9.68
2022-08-22T19:49:54.427Z,9.82
2022-08-22T19:52:44.810Z,8.88
2022-08-22T19:55:26.159Z,8.23
2022-08-22T19:57:52.750Z,7.78
2022-08-22T20:00:24.681Z,9.02
2022-08-22T20:03:14.066Z,9.10
2022-08-22T20:06:05.913Z,12.15
2022-08-22T20:08:55.538Z,8.15
2022-08-22T20:11:46.589Z,9.82
2022-08-22T20:14:30.919Z,10.98
2022-08-22T20:17:01.030Z,9.00
2022-08-22T20:22:43.175Z,9.50
2022-08-22T20:25:17.059Z,12.20
2022-08-22T20:28:05.035Z,7.32
2022-08-22T20:30:38.886Z,7.05
2022-08-22T20:33:10.779Z,9.88
2022-08-22T20:35:50.575Z,8.68
2022-08-22T20:38:22.409Z,9.15
2022-08-22T20:41:11.375Z,7.43
2022-08-22T20:43:50.629Z,8.20
2022-08-22T20:46:53.627Z,8.90
2022-08-22T20:49:37.703Z,11.50
2022-08-22T20:52:29.214Z,9.07
2022-08-22T20:55:07.016Z,10.00
2022-08-22T20:57:35.600Z,11.05
2022-08-22T21:00:11.730Z,10.48
2022-08-22T21:02:44.924Z,13.75
2022-08-22T21:05:11.499Z,9.25
2022-08-22T21:07:41.559Z,12.30
2022-08-22T21:10:31.639Z,10.82
2022-08-22T21:13:14.002Z,18.25
2022-08-22T21:15:45.786Z,10.73
2022-08-22T21:18:25.478Z,11.00
2022-08-22T21:20:52.540Z,15.50
2022-08-22T21:23:19.934Z,13.02
2022-08-22T21:25:57.334Z,17.15
2022-08-22T21:28:32.801Z,11.90
2022-08-22T21:31:06.936Z,15.68
2022-08-22T21:33:33.644Z,16.83
2022-08-22T21:36:00.866Z,21.35
2022-08-22T21:38:28.146Z,18.63
2022-08-22T21:41:01.845Z,16.52
2022-08-22T21:43:33.525Z,11.70
2022-08-22T21:46:00.275Z,15.30
2022-08-22T21:48:44.984Z,20.73
2022-08-22T21:51:26.917Z,14.80
2022-08-22T21:54:28.969Z,16.63
2022-08-22T21:56:59.274Z,15.40
2022-08-22T21:59:50.898Z,16.77
2022-08-22T22:02:39.692Z,15.25
2022-08-22T22:05:13.022Z,15.40
2022-08-22T22:07:42.001Z,14.88
2022-08-22T22:10:10.940Z,15.30
2022-08-22T22:12:43.321Z,14.68
2022-08-22T22:15:14.850Z,16.77
2022-08-22T22:17:41.672Z,17.77
2022-08-22T22:20:09.408Z,15.32
2022-08-22T22:22:37.029Z,18.65
2022-08-22T22:25:40.188Z,13.77
2022-08-22T22:27:58.659Z,17.88
2022-08-22T22:30:25.704Z,22.10
2022-08-22T22:32:52.491Z,18.48
2022-08-22T22:35:21.464Z,14.20
2022-08-22T22:37:48.125Z,14.85
2022-08-22T22:40:15.314Z,12.05
2022-08-22T22:42:42.039Z,12.70
2022-08-22T22:45:10.673Z,19.13
2022-08-22T22:47:40.587Z,17.40
2022-08-22T22:50:08.481Z,13.35
2022-08-22T22:52:38.514Z,17.20
2022-08-22T22:55:09.078Z,17.73
2022-08-22T22:57:41.292Z,17.33
2022-08-22T23:00:12.545Z,16.52
2022-08-22T23:02:39.874Z,15.07
2022-08-22T23:05:08.715Z,17.33
2022-08-22T23:07:37.264Z,19.02
2022-08-22T23:10:07.169Z,19.33
2022-08-22T23:12:37.429Z,17.60
2022-08-22T23:15:06.624Z,19.95
2022-08-22T23:17:34.092Z,18.67
2022-08-22T23:20:01.004Z,20.90
2022-08-22T23:22:27.835Z,18.63
2022-08-22T23:24:54.504Z,22.38
2022-08-22T23:27:21.122Z,24.17
2022-08-22T23:29:47.748Z,21.92
2022-08-22T23:32:15.077Z,22.38
2022-08-22T23:34:46.111Z,21.25
2022-08-22T23:37:17.681Z,25.83
2022-08-22T23:39:44.674Z,21.75
2022-08-22T23:42:12.796Z,23.38
2022-08-22T23:44:40.958Z,25.58
2022-08-22T23:47:09.495Z,24.15
2022-08-22T23:49:37.897Z,20.83
2022-08-22T23:52:06.176Z,23.38
2022-08-22T23:54:33.880Z,22.20
2022-08-22T23:57:03.173Z,19.83
2022-08-22T23:59:43.365Z,22.02
